Time;durP1;ratioP1;P1;durP2;ratioP2;P2;SDS_P1;SDS_P2;PMS_P1;PMS_P2;Temp;Humidity;BMP_temperature;BMP_pressure;BME280_temperature;BME280_humidity;BME280_pressure;Samples;Min_cycle;Max_cycle;Signal;HPM_P1;HPM_P2
2022/09/06 00:01:07;;;;;;;12.27;11.65;;;;;;;20.56;62.74;101765.19;4980596;28;102127;-89
2022/09/06 00:03:33;;;;;;;12.45;11.75;;;;;;;20.57;62.63;101777.06;4963029;28;103440;-89
2022/09/06 00:06:05;;;;;;;11.52;10.93;;;;;;;20.58;62.74;101773.16;4979954;28;103406;-89
2022/09/06 00:08:32;;;;;;;13.00;12.30;;;;;;;20.57;62.68;101774.31;4971908;28;103921;-89
2022/09/06 00:11:01;;;;;;;14.77;13.90;;;;;;;20.57;62.64;101777.88;4964171;28;102162;-89
2022/09/06 00:13:28;;;;;;;15.32;14.52;;;;;;;20.57;62.75;101777.06;4980825;28;103147;-89
2022/09/06 00:16:02;;;;;;;12.55;11.90;;;;;;;20.57;62.63;101771.53;4978646;28;102954;-90
2022/09/06 00:18:32;;;;;;;13.90;13.10;;;;;;;20.57;62.60;101768.78;4964491;28;104230;-90
2022/09/06 00:20:58;;;;;;;14.15;13.40;;;;;;;20.57;62.54;101771.53;4957156;28;102112;-90
2022/09/06 00:23:25;;;;;;;12.68;11.95;;;;;;;20.57;62.53;101760.47;4972085;28;102053;-90
2022/09/06 00:25:51;;;;;;;12.65;11.85;;;;;;;20.57;62.49;101766.00;4981486;28;102147;-90
2022/09/06 00:28:18;;;;;;;13.25;12.45;;;;;;;20.57;62.68;101766.00;4979205;28;104767;-90
2022/09/06 00:30:45;;;;;;;13.00;12.30;;;;;;;20.56;62.49;101764.38;4981759;28;102391;-90
2022/09/06 00:33:13;;;;;;;13.00;12.40;;;;;;;20.56;62.57;101759.66;4979472;28;102394;-89
2022/09/06 00:35:43;;;;;;;14.20;13.50;;;;;;;20.56;63.04;101765.19;4981511;28;102071;-89
2022/09/06 00:38:09;;;;;;;13.75;13.00;;;;;;;20.56;62.58;101769.91;4980033;28;104168;-90
2022/09/06 00:40:39;;;;;;;14.00;13.23;;;;;;;20.57;62.83;101772.34;4980134;28;102552;-89
2022/09/06 00:43:08;;;;;;;15.48;14.65;;;;;;;20.58;62.72;101764.88;4977160;28;102863;-90
2022/09/06 00:45:34;;;;;;;14.55;13.75;;;;;;;20.57;62.80;101766.00;4964476;28;102295;-92
2022/09/06 00:48:04;;;;;;;14.80;14.00;;;;;;;20.56;62.91;101767.16;4979966;28;104033;-92
2022/09/06 00:50:33;;;;;;;13.63;12.88;;;;;;;20.58;62.58;101764.88;4980189;28;102265;-91
2022/09/06 00:53:00;;;;;;;13.37;12.57;;;;;;;20.57;62.75;101779.84;4979970;28;102877;-92
2022/09/06 00:55:27;;;;;;;14.60;13.70;;;;;;;20.57;62.95;101771.53;4976931;28;102119;-91
2022/09/06 00:57:55;;;;;;;14.18;13.32;;;;;;;20.56;62.86;101765.19;4977644;28;104001;-91
2022/09/06 01:00:22;;;;;;;16.58;15.68;;;;;;;20.56;62.81;101770.72;4962151;28;102184;-91
2022/09/06 01:02:49;;;;;;;13.65;12.75;;;;;;;20.57;62.90;101774.31;4977787;28;102931;-91
2022/09/06 01:05:16;;;;;;;14.18;13.27;;;;;;;20.57;63.03;101777.06;4980539;28;102135;-91
2022/09/06 01:08:01;;;;;;;14.82;13.98;;;;;;;20.57;63.04;101774.31;4979822;28;103934;-92
2022/09/06 01:10:39;;;;;;;13.38;12.60;;;;;;;20.56;62.83;101770.72;4963510;28;101963;-91
2022/09/06 01:13:19;;;;;;;13.02;12.30;;;;;;;20.57;63.02;101766.81;4979395;28;102167;-88
2022/09/06 01:15:54;;;;;;;12.88;12.18;;;;;;;20.57;62.86;101766.00;4980498;28;102690;-90
2022/09/06 01:18:30;;;;;;;13.70;12.90;;;;;;;20.56;63.57;101753.31;4961673;28;103905;-91
2022/09/06 01:21:14;;;;;;;14.40;13.63;;;;;;;20.56;63.04;101762.44;4970668;28;102120;-90
2022/09/06 01:24:25;;;;;;;14.05;13.25;;;;;;;20.56;63.21;101758.84;4982086;28;102008;-90
2022/09/06 01:27:28;;;;;;;12.48;11.63;;;;;;;20.56;63.03;101765.19;4968993;28;102245;-91
2022/09/06 01:30:02;;;;;;;11.85;11.25;;;;;;;20.56;63.11;101764.38;4936235;28;103982;-91
2022/09/06 01:32:34;;;;;;;14.45;13.55;;;;;;;20.56;63.14;101765.19;4958584;28;103607;-91
2022/09/06 01:35:08;;;;;;;12.52;11.77;;;;;;;20.56;63.16;101758.84;4952960;28;102047;-91
2022/09/06 01:37:35;;;;;;;13.18;12.38;;;;;;;20.56;62.89;101753.31;4980022;28;103306;-91
2022/09/06 01:40:02;;;;;;;14.45;13.65;;;;;;;20.56;63.37;101759.66;4978513;28;103788;-91
2022/09/06 01:42:32;;;;;;;14.57;13.68;;;;;;;20.56;63.28;101753.31;4979624;28;102956;-91
2022/09/06 01:45:05;;;;;;;13.40;12.60;;;;;;;20.56;63.46;101753.31;4958102;28;102180;-91
2022/09/06 01:47:45;;;;;;;13.30;12.50;;;;;;;20.56;63.14;101758.84;4962780;28;102467;-90
2022/09/06 01:50:47;;;;;;;14.77;13.95;;;;;;;20.56;63.17;101759.66;4980212;28;103932;-91
2022/09/06 01:53:37;;;;;;;12.77;12.07;;;;;;;20.56;63.29;101765.19;4952307;28;102337;-90
2022/09/06 01:56:09;;;;;;;13.65;12.85;;;;;;;20.56;63.48;101765.19;4938519;28;102199;-90
2022/09/06 01:58:58;;;;;;;14.05;13.27;;;;;;;20.55;63.58;101768.25;4980194;28;102163;-90
2022/09/06 02:01:37;;;;;;;13.60;12.85;;;;;;;20.55;63.16;101762.72;4977588;28;103764;-90
2022/09/06 02:04:12;;;;;;;13.57;12.88;;;;;;;20.55;63.46;101763.53;4979479;28;102060;-90
2022/09/06 02:06:42;;;;;;;13.95;13.15;;;;;;;20.56;63.31;101758.84;4961213;28;102386;-90
2022/09/06 02:09:13;;;;;;;13.35;12.52;;;;;;;20.57;63.46;101766.00;4978607;28;102617;-90
2022/09/06 02:11:45;;;;;;;12.82;12.10;;;;;;;20.56;63.49;101759.66;4958624;28;103883;-90
2022/09/06 02:14:16;;;;;;;14.35;13.55;;;;;;;20.55;63.80;101762.72;4962790;28;101959;-90
2022/09/06 02:16:48;;;;;;;13.38;12.68;;;;;;;20.56;63.87;101764.38;4967589;28;102738;-90
2022/09/06 02:19:20;;;;;;;14.32;13.52;;;;;;;20.55;63.52;101763.53;4969971;28;102314;-92
2022/09/06 02:21:50;;;;;;;15.73;14.85;;;;;;;20.55;63.75;101763.53;4973657;28;103927;-91
2022/09/06 02:24:20;;;;;;;15.20;14.40;;;;;;;20.56;63.79;101759.66;4972693;28;102202;-92
2022/09/06 02:26:47;;;;;;;14.60;13.73;;;;;;;20.55;63.83;101762.72;4979049;28;102051;-92
2022/09/06 02:29:15;;;;;;;14.98;14.07;;;;;;;20.55;64.16;101757.19;4960527;28;102839;-91
2022/09/06 02:31:47;;;;;;;15.20;14.40;;;;;;;20.55;64.51;101759.97;4979336;28;103846;-91
2022/09/06 02:34:17;;;;;;;14.63;13.77;;;;;;;20.55;63.75;101755.25;4953490;28;102128;-90
2022/09/06 02:36:44;;;;;;;16.42;15.55;;;;;;;20.55;64.08;101759.97;4978384;28;102524;-90
2022/09/06 02:39:11;;;;;;;14.20;13.45;;;;;;;20.55;63.90;101762.72;4966676;28;102628;-93
2022/09/06 02:41:39;;;;;;;14.20;13.43;;;;;;;20.55;64.37;101762.72;4960442;28;104148;-92
2022/09/06 02:44:06;;;;;;;15.85;14.88;;;;;;;20.55;64.42;101757.19;4976158;28;102077;-93
2022/09/06 02:46:32;;;;;;;15.18;14.32;;;;;;;20.55;64.10;101768.25;4961377;28;102121;-93
2022/09/06 02:49:00;;;;;;;15.05;14.15;;;;;;;20.55;63.81;101762.72;4979360;28;102140;-93
2022/09/06 02:51:27;;;;;;;15.70;14.70;;;;;;;20.55;64.07;101768.25;4949989;28;102894;-91
2022/09/06 02:53:53;;;;;;;13.70;13.00;;;;;;;20.54;64.23;101770.22;4979907;28;101933;-91
2022/09/06 02:56:20;;;;;;;16.42;15.52;;;;;;;20.55;64.10;101768.25;4979223;28;102082;-91
2022/09/06 02:58:47;;;;;;;14.30;13.50;;;;;;;20.55;64.01;101779.31;4963171;28;102432;-91
2022/09/06 03:01:13;;;;;;;16.67;15.77;;;;;;;20.53;64.08;101776.88;4978604;28;103903;-90
2022/09/06 03:03:40;;;;;;;14.05;13.15;;;;;;;20.54;63.78;101774.94;4977600;28;103061;-91
2022/09/06 03:06:08;;;;;;;13.82;13.02;;;;;;;20.54;63.95;101786.00;4978789;28;101973;-90
2022/09/06 03:08:36;;;;;;;15.40;14.40;;;;;;;20.55;63.79;101787.63;4980409;28;104033;-91
2022/09/06 03:11:02;;;;;;;16.50;15.60;;;;;;;20.54;63.90;101783.22;4960938;28;104083;-91
2022/09/06 03:13:29;;;;;;;14.27;13.57;;;;;;;20.55;63.88;101790.38;4975901;28;102119;-92
2022/09/06 03:15:57;;;;;;;17.95;16.95;;;;;;;20.55;64.07;101787.63;4973991;28;102440;-90
2022/09/06 03:18:29;;;;;;;13.60;12.82;;;;;;;20.54;64.17;101788.75;4978274;28;102063;-92
2022/09/06 03:20:56;;;;;;;15.18;14.35;;;;;;;20.54;64.02;101799.81;4979626;28;104063;-91
2022/09/06 03:23:26;;;;;;;15.73;14.82;;;;;;;20.53;64.13;101787.13;4980104;28;102186;-93
2022/09/06 03:25:53;;;;;;;14.20;13.43;;;;;;;20.54;64.04;101794.28;4978977;28;102108;-92
2022/09/06 03:28:20;;;;;;;16.17;15.25;;;;;;;20.53;64.14;101789.91;4980805;28;102193;-92
2022/09/06 03:30:49;;;;;;;15.20;14.33;;;;;;;20.54;63.95;101791.53;4951995;28;104202;-92
2022/09/06 03:33:19;;;;;;;15.13;14.32;;;;;;;20.53;64.13;101787.13;4955517;28;102096;-92
2022/09/06 03:35:51;;;;;;;16.45;15.55;;;;;;;20.53;63.98;101799.00;4962837;28;102526;-91
2022/09/06 03:38:28;;;;;;;15.60;14.70;;;;;;;20.53;64.42;101793.47;4962511;28;102149;-90
2022/09/06 03:40:54;;;;;;;15.45;14.55;;;;;;;20.53;64.41;101792.66;4979746;28;104130;-90
2022/09/06 03:43:23;;;;;;;14.90;14.00;;;;;;;20.54;64.12;101794.28;4980953;28;101989;-91
2022/09/06 03:45:52;;;;;;;15.80;14.77;;;;;;;20.54;63.99;101799.81;4978513;28;102098;-90
2022/09/06 03:48:20;;;;;;;14.27;13.27;;;;;;;20.53;63.88;101801.78;4981040;28;102163;-90
2022/09/06 03:50:49;;;;;;;13.85;13.05;;;;;;;20.53;64.34;101804.53;4962755;28;103970;-90
2022/09/06 03:53:17;;;;;;;14.80;13.93;;;;;;;20.52;64.47;101807.59;4979779;28;102069;-91
2022/09/06 03:55:47;;;;;;;16.08;15.07;;;;;;;20.52;64.10;101805.69;4962708;28;102438;-90
2022/09/06 03:58:15;;;;;;;17.02;16.02;;;;;;;20.52;64.10;101811.22;4970227;28;102267;-91
2022/09/06 04:00:41;;;;;;;15.97;14.97;;;;;;;20.53;63.99;101812.03;4979255;28;104070;-90
2022/09/06 04:03:08;;;;;;;17.27;16.33;;;;;;;20.53;63.90;101814.78;4979948;28;101981;-89
2022/09/06 04:05:36;;;;;;;16.03;15.10;;;;;;;20.53;64.10;101817.56;4974314;28;102264;-89
2022/09/06 04:08:04;;;;;;;16.60;15.60;;;;;;;20.53;64.14;101818.38;4972083;28;102123;-91
2022/09/06 04:10:32;;;;;;;15.60;14.70;;;;;;;20.53;64.02;101820.31;4979680;28;103918;-91
2022/09/06 04:13:00;;;;;;;17.65;16.55;;;;;;;20.52;64.04;101818.66;4948913;28;102657;-91
2022/09/06 04:15:27;;;;;;;14.60;13.75;;;;;;;20.52;64.16;101821.44;4981081;28;102074;-91
2022/09/06 04:17:57;;;;;;;14.90;14.05;;;;;;;20.51;64.00;101820.63;4981245;28;102218;-91
2022/09/06 04:20:24;;;;;;;15.48;14.48;;;;;;;20.53;64.08;101825.84;4966023;28;104043;-91
2022/09/06 04:22:50;;;;;;;17.50;16.50;;;;;;;20.52;64.24;101826.97;4980371;28;102000;-91
2022/09/06 04:25:17;;;;;;;16.83;15.85;;;;;;;20.52;63.94;101830.56;4950840;28;102152;-91
2022/09/06 04:27:44;;;;;;;17.77;16.63;;;;;;;20.52;64.10;101836.09;4967787;28;102210;-91
2022/09/06 04:30:12;;;;;;;16.15;14.95;;;;;;;20.52;64.22;101830.56;4964553;28;103939;-90
2022/09/06 04:32:43;;;;;;;17.55;16.48;;;;;;;20.52;64.23;101835.25;4961645;28;102028;-90
2022/09/06 04:35:14;;;;;;;18.23;17.13;;;;;;;20.53;64.18;101839.69;4976044;28;102097;-90
2022/09/06 04:37:41;;;;;;;16.65;15.65;;;;;;;20.53;64.14;101831.38;4966581;28;101938;-90
2022/09/06 04:40:08;;;;;;;16.95;15.95;;;;;;;20.53;64.19;101836.91;4963594;28;104125;-90
2022/09/06 04:42:35;;;;;;;15.33;14.40;;;;;;;20.52;64.30;101826.97;4964273;28;102014;-91
2022/09/06 04:45:02;;;;;;;17.85;16.65;;;;;;;20.52;64.29;101826.97;4980003;28;102181;-91
2022/09/06 04:47:30;;;;;;;16.75;15.77;;;;;;;20.51;64.26;101820.63;4970668;28;102104;-91
2022/09/06 04:49:59;;;;;;;18.30;17.08;;;;;;;20.51;64.27;101817.84;4972181;28;103843;-90
2022/09/06 04:52:31;;;;;;;19.23;17.98;;;;;;;20.52;64.17;101815.91;4964769;28;102010;-90
2022/09/06 04:54:58;;;;;;;16.63;15.52;;;;;;;20.52;64.10;101819.50;4981181;28;101969;-91
2022/09/06 04:57:24;;;;;;;17.48;16.38;;;;;;;20.51;64.11;101814.28;4961523;28;102355;-91
2022/09/06 04:59:51;;;;;;;16.55;15.55;;;;;;;20.52;64.16;101818.66;4977593;28;103961;-91
2022/09/06 05:02:17;;;;;;;17.17;16.23;;;;;;;20.52;64.37;101829.72;4978688;28;103474;-89
2022/09/06 05:04:45;;;;;;;18.02;16.90;;;;;;;20.53;64.46;101823.91;4977362;28;102301;-90
2022/09/06 05:07:15;;;;;;;18.10;17.02;;;;;;;20.52;64.31;101824.19;4961837;28;102452;-90
2022/09/06 05:09:42;;;;;;;18.60;17.42;;;;;;;20.52;64.09;101830.56;4977610;28;102961;-89
2022/09/06 05:12:09;;;;;;;18.65;17.55;;;;;;;20.54;64.30;101830.25;4962046;28;102109;-89
2022/09/06 05:14:36;;;;;;;17.45;16.40;;;;;;;20.54;64.29;101821.94;4977718;28;102073;-89
2022/09/06 05:17:02;;;;;;;17.98;16.83;;;;;;;20.54;64.32;101821.94;4979972;28;102110;-89
2022/09/06 05:19:29;;;;;;;17.52;16.48;;;;;;;20.55;64.29;101823.56;4979204;28;103998;-90
2022/09/06 05:21:57;;;;;;;19.33;18.20;;;;;;;20.55;64.28;101826.34;4968109;28;102599;-90
2022/09/06 05:24:26;;;;;;;20.08;18.88;;;;;;;20.55;64.10;101824.38;4957108;28;102250;-90
2022/09/06 05:26:55;;;;;;;18.45;17.40;;;;;;;20.56;64.15;101811.41;4958629;28;102175;-91
2022/09/06 05:29:21;;;;;;;;;;;;;;;20.58;64.11;101811.88;4972608;28;104089;-91
2022/09/06 05:31:52;;;;;;;15.23;14.25;;;;;;;20.57;64.11;101811.06;4957817;28;102134;-96
2022/09/06 05:34:19;;;;;;;16.75;15.75;;;;;;;20.59;63.92;101810.75;4959077;28;102135;-92
2022/09/06 05:36:46;;;;;;;17.08;16.08;;;;;;;20.61;64.44;101805.75;4972371;28;102935;-92
2022/09/06 05:39:19;;;;;;;17.58;16.45;;;;;;;20.60;63.88;101798.56;4968554;28;104791;-92
2022/09/06 05:41:49;;;;;;;19.17;18.05;;;;;;;20.61;63.85;101805.75;4976906;28;102088;-92
2022/09/06 05:44:19;;;;;;;19.33;18.13;;;;;;;20.63;63.81;101797.97;4973073;28;102001;-91
2022/09/06 05:46:46;;;;;;;19.23;18.00;;;;;;;20.65;63.65;101812.28;4951917;28;102212;-92
2022/09/06 05:49:15;;;;;;;21.05;19.75;;;;;;;20.67;63.74;101825.81;4960266;28;103926;-94
2022/09/06 05:51:41;;;;;;;20.23;18.95;;;;;;;20.67;63.75;101825.81;4971740;28;102588;-95
2022/09/06 05:54:11;;;;;;;20.10;18.85;;;;;;;20.67;63.27;101829.38;4967663;28;102113;-95
2022/09/06 05:56:42;;;;;;;20.63;19.33;;;;;;;20.66;63.82;101822.19;4968351;28;102239;-96
2022/09/06 05:59:13;;;;;;;19.40;18.17;;;;;;;20.66;63.72;101836.03;4966782;28;103953;-96
2022/09/06 06:01:51;;;;;;;19.58;17.98;;;;;;;20.67;63.66;101825.81;4944558;28;101239;-96
2022/09/06 06:04:21;;;;;;;16.52;15.55;;;;;;;20.68;63.49;101824.66;4956083;28;102054;-96
2022/09/06 06:06:48;;;;;;;18.10;16.92;;;;;;;20.68;63.61;101828.25;4942352;28;101381;-94
2022/09/06 06:09:15;;;;;;;20.70;19.42;;;;;;;20.69;63.69;101829.88;4955670;28;103062;-95
2022/09/06 06:11:49;;;;;;;19.25;18.05;;;;;;;20.68;63.65;101825.47;4959066;28;102124;-95
2022/09/06 06:14:18;;;;;;;21.33;19.92;;;;;;;20.68;63.63;101839.31;4957287;28;101963;-94
2022/09/06 06:16:51;;;;;;;19.48;18.20;;;;;;;20.66;63.72;101844.31;4960023;28;102077;-93
2022/09/06 06:19:25;;;;;;;19.90;18.60;;;;;;;20.67;64.83;101832.16;4951940;28;102999;-93
2022/09/06 06:21:55;;;;;;;21.45;19.92;;;;;;;20.65;63.55;101839.94;4954500;28;102170;-93
2022/09/06 06:24:21;;;;;;;22.17;20.30;;;;;;;20.64;63.16;101835.53;4956600;28;102107;-93
2022/09/06 06:26:49;;;;;;;21.17;19.50;;;;;;;20.66;62.25;101835.22;4941039;28;103662;-91
2022/09/06 06:29:16;;;;;;;23.93;22.33;;;;;;;20.65;61.14;101842.69;4947704;28;104133;-96
2022/09/06 06:31:43;;;;;;;24.08;22.38;;;;;;;20.65;61.28;101831.63;4949695;28;102491;-93
2022/09/06 06:34:22;;;;;;;23.90;22.30;;;;;;;20.64;61.15;101836.34;4960684;28;101962;-93
2022/09/06 06:36:49;;;;;;;22.50;20.73;;;;;;;20.66;61.15;101840.75;4958614;28;102725;-96
2022/09/06 06:39:18;;;;;;;25.60;23.55;;;;;;;20.65;60.66;101839.94;4950844;28;103292;-96
2022/09/06 06:41:45;;;;;;;24.80;22.83;;;;;;;20.68;59.74;101828.25;4949589;22;102475;-68
2022/09/06 06:44:13;;;;;;;25.17;22.98;;;;;;;20.71;59.77;101840.66;4944922;28;102359;-53
2022/09/06 06:46:40;;;;;;;22.88;21.00;;;;;;;20.70;59.44;101848.13;4943808;28;102593;-52
2022/09/06 06:49:07;;;;;;;26.73;24.40;;;;;;;20.70;59.82;101848.13;4949399;28;103905;-51
2022/09/06 06:51:38;;;;;;;27.13;25.10;;;;;;;20.70;60.03;101845.38;4949817;28;102148;-51
2022/09/06 06:54:05;;;;;;;27.30;25.05;;;;;;;20.71;59.88;101848.94;4937832;28;102280;-51
2022/09/06 06:56:33;;;;;;;28.00;25.45;;;;;;;20.72;59.81;101845.03;4940910;28;102213;-51
2022/09/06 06:59:01;;;;;;;23.03;21.13;;;;;;;20.73;60.07;101836.41;4950735;28;104044;-51
2022/09/06 07:01:30;;;;;;;22.58;20.92;;;;;;;20.76;60.20;101840.50;4957674;28;101993;-52
2022/09/06 07:03:58;;;;;;;24.88;23.08;;;;;;;20.76;60.21;101835.78;4944948;28;101925;-51
2022/09/06 07:06:28;;;;;;;22.83;20.85;;;;;;;20.78;60.50;101839.06;4954237;28;102242;-51
2022/09/06 07:08:57;;;;;;;23.17;21.55;;;;;;;20.80;60.42;101847.06;4948926;28;103915;-51
2022/09/06 07:11:24;;;;;;;22.48;20.63;;;;;;;20.81;60.73;101849.53;4951100;28;102089;-51
2022/09/06 07:13:50;;;;;;;22.20;20.30;;;;;;;20.82;60.55;101845.63;4946665;28;102044;-51
2022/09/06 07:16:19;;;;;;;22.20;20.70;;;;;;;20.85;60.49;101844.19;4953107;28;102320;-51
2022/09/06 07:18:50;;;;;;;21.33;19.83;;;;;;;20.86;60.28;101846.63;4946262;28;104084;-51
2022/09/06 07:21:18;;;;;;;22.95;21.45;;;;;;;20.86;60.58;101852.16;4949074;28;102095;-51
2022/09/06 07:23:44;;;;;;;23.97;22.27;;;;;;;20.87;60.65;101841.91;4940053;28;102266;-51
2022/09/06 07:26:15;;;;;;;22.30;20.70;;;;;;;20.87;60.49;101839.94;4951837;28;102269;-52
2022/09/06 07:28:41;;;;;;;25.20;23.50;;;;;;;20.90;60.63;101843.22;4943397;28;103989;-51
2022/09/06 07:31:08;;;;;;;24.75;22.90;;;;;;;20.92;60.51;101840.97;4952329;28;104971;-51
2022/09/06 07:33:35;;;;;;;24.63;22.77;;;;;;;20.92;60.49;101844.56;4958875;28;101941;-51
2022/09/06 07:36:06;;;;;;;21.02;19.50;;;;;;;20.94;60.38;101847.81;4956198;28;102130;-51
2022/09/06 07:38:34;;;;;;;24.92;23.23;;;;;;;20.94;60.73;101841.47;4954397;28;103943;-51
2022/09/06 07:41:01;;;;;;;24.77;23.20;;;;;;;20.95;60.41;101843.09;4964731;28;102669;-51
2022/09/06 07:43:29;;;;;;;24.10;22.48;;;;;;;20.95;60.36;101834.78;4979101;28;102599;-51
2022/09/06 07:46:00;;;;;;;22.70;21.20;;;;;;;20.94;60.43;101842.28;4979759;28;102157;-51
2022/09/06 07:48:28;;;;;;;23.77;22.13;;;;;;;20.96;60.59;101839.22;4977337;28;103871;-51
2022/09/06 07:50:55;;;;;;;22.58;21.17;;;;;;;20.98;60.65;101836.94;4978080;28;102219;-51
2022/09/06 07:53:23;;;;;;;22.20;20.77;;;;;;;21.00;60.49;101845.75;4966622;28;101928;-51
2022/09/06 07:55:50;;;;;;;24.00;22.40;;;;;;;20.98;60.55;101843.28;4970711;28;102064;-52
2022/09/06 07:58:16;;;;;;;24.27;22.58;;;;;;;21.00;60.50;101840.22;4976640;28;103902;-51
2022/09/06 08:00:43;;;;;;;22.00;20.50;;;;;;;21.01;60.52;101836.31;4976363;28;101884;-51
2022/09/06 08:03:10;;;;;;;21.27;19.98;;;;;;;21.01;60.45;101837.13;4963317;28;102231;-51
2022/09/06 08:05:38;;;;;;;22.80;21.48;;;;;;;21.02;60.13;101844.28;4970365;28;102133;-52
2022/09/06 08:08:05;;;;;;;22.15;20.83;;;;;;;21.03;60.59;101834.06;4976398;28;103960;-51
2022/09/06 08:10:33;;;;;;;22.98;21.50;;;;;;;21.06;60.39;101838.94;4977093;28;101904;-48
2022/09/06 08:12:59;;;;;;;21.85;20.55;;;;;;;21.04;60.50;101825.44;4961145;28;101858;-49
2022/09/06 08:15:28;;;;;;;19.90;18.60;;;;;;;21.05;60.55;101831.78;4973441;28;102091;-48
2022/09/06 08:17:55;;;;;;;23.48;22.08;;;;;;;21.05;60.61;101821.53;4963123;28;103914;-49
2022/09/06 08:20:22;;;;;;;21.63;20.20;;;;;;;21.06;60.39;101822.31;4959043;28;102532;-49
2022/09/06 08:22:48;;;;;;;23.50;22.10;;;;;;;21.08;60.39;101826.44;4958383;28;102361;-49
2022/09/06 08:25:14;;;;;;;23.38;21.98;;;;;;;21.05;60.44;101815.97;4967235;28;102141;-48
2022/09/06 08:27:42;;;;;;;22.60;21.20;;;;;;;21.05;60.36;101821.53;4977180;28;104078;-48
2022/09/06 08:30:10;;;;;;;21.63;19.97;;;;;;;21.06;60.57;101808.50;4976687;28;102242;-49
2022/09/06 08:32:37;;;;;;;24.85;23.35;;;;;;;21.07;60.47;101818.44;4975245;28;101950;-48
2022/09/06 08:35:04;;;;;;;23.95;22.45;;;;;;;21.08;60.51;101809.00;4971079;28;102079;-49
2022/09/06 08:37:31;;;;;;;21.83;20.52;;;;;;;21.09;60.64;101805.09;4968796;28;104024;-49
2022/09/06 08:39:57;;;;;;;23.73;22.33;;;;;;;21.09;60.60;101803.16;4967833;28;102167;-49
2022/09/06 08:42:24;;;;;;;20.48;19.25;;;;;;;21.09;60.46;101808.69;4971825;28;102759;-49
2022/09/06 08:44:57;;;;;;;23.27;21.83;;;;;;;21.10;60.33;101801.22;4971756;28;102281;-49
2022/09/06 08:47:24;;;;;;;21.55;20.10;;;;;;;21.09;60.54;101803.16;4971000;28;108088;-48
2022/09/06 08:49:54;;;;;;;23.45;21.85;;;;;;;21.07;60.46;101797.13;4973165;28;102103;-48
2022/09/06 08:52:33;;;;;;;23.17;21.67;;;;;;;21.11;60.30;101803.66;4972515;28;102434;-48
2022/09/06 08:55:11;;;;;;;20.60;19.27;;;;;;;21.10;60.28;101802.03;4961457;28;102186;-48
2022/09/06 08:57:55;;;;;;;19.38;18.13;;;;;;;21.10;60.61;101801.22;4972042;28;105545;-48
2022/09/06 09:00:22;;;;;;;20.30;19.08;;;;;;;21.08;59.87;101790.44;4974202;28;102215;-48
2022/09/06 09:02:54;;;;;;;24.80;23.20;;;;;;;21.08;60.08;101784.91;4971918;28;102201;-48
2022/09/06 09:05:24;;;;;;;22.60;21.10;;;;;;;21.05;60.29;101788.31;4973266;28;102503;-48
2022/09/06 09:08:02;;;;;;;24.23;22.73;;;;;;;21.04;60.24;101786.69;4962050;28;103959;-48
2022/09/06 09:10:40;;;;;;;23.90;22.50;;;;;;;21.04;60.21;101785.88;4958955;28;102204;-49
2022/09/06 09:13:15;;;;;;;21.67;20.25;;;;;;;21.04;60.21;101785.88;4962676;28;102236;-48
2022/09/06 09:15:43;;;;;;;20.60;19.30;;;;;;;21.03;60.34;101787.00;4957404;28;102489;-48
2022/09/06 09:18:10;;;;;;;21.23;19.92;;;;;;;21.04;60.21;101785.88;4955836;28;103968;-48
2022/09/06 09:20:37;;;;;;;19.95;18.75;;;;;;;21.01;60.15;101792.84;4956715;28;102604;-48
2022/09/06 09:23:06;;;;;;;20.45;19.23;;;;;;;21.00;60.52;101793.16;4969950;28;102671;-48
2022/09/06 09:25:34;;;;;;;23.73;22.33;;;;;;;20.97;60.30;101796.56;4957687;28;102410;-48
2022/09/06 09:28:01;;;;;;;19.80;18.35;;;;;;;20.97;61.00;101802.09;4953278;28;103997;-48
2022/09/06 09:30:46;;;;;;;22.77;21.38;;;;;;;20.96;60.50;101789.41;4971353;28;102279;-48
2022/09/06 09:33:31;;;;;;;20.30;19.02;;;;;;;20.92;60.45;101789.22;4971994;28;102323;-48
2022/09/06 09:35:59;;;;;;;19.27;18.13;;;;;;;20.95;60.34;101787.75;4970272;28;102209;-49
2022/09/06 09:38:28;;;;;;;20.70;19.20;;;;;;;20.95;60.61;101773.91;4964281;28;103980;-50
2022/09/06 09:40:57;;;;;;;21.90;20.50;;;;;;;20.97;60.31;101791.03;4964493;28;102177;-48
2022/09/06 09:43:25;;;;;;;21.08;19.85;;;;;;;20.96;60.48;101783.88;4954929;28;101995;-49
2022/09/06 09:46:14;;;;;;;19.27;18.13;;;;;;;20.95;60.47;101782.22;4971462;28;102443;-48
2022/09/06 09:48:47;;;;;;;19.85;18.63;;;;;;;20.95;60.33;101787.75;4971910;28;104190;-49
2022/09/06 09:51:22;;;;;;;21.90;20.58;;;;;;;20.95;60.01;101777.50;4972857;28;102029;-48
2022/09/06 09:53:51;;;;;;;20.58;19.33;;;;;;;20.96;60.45;101783.88;4971869;28;102163;-49
2022/09/06 09:56:25;;;;;;;21.27;19.98;;;;;;;20.97;60.36;101777.19;4973061;28;102142;-48
2022/09/06 09:58:54;;;;;;;21.48;20.10;;;;;;;20.97;60.09;101768.91;4969167;28;104143;-49
2022/09/06 10:01:26;;;;;;;20.48;19.17;;;;;;;20.99;60.33;101772.16;4968383;28;102076;-48
2022/09/06 10:04:00;;;;;;;20.67;19.23;;;;;;;20.97;60.24;101780.78;4952241;28;102184;-49
2022/09/06 10:06:27;;;;;;;19.30;18.13;;;;;;;20.96;60.35;101775.56;4954314;28;102212;-49
2022/09/06 10:08:54;;;;;;;19.73;18.38;;;;;;;20.95;59.96;101776.69;4955896;28;103974;-49
2022/09/06 10:11:39;;;;;;;18.90;17.63;;;;;;;20.94;60.08;101775.06;4972659;28;101995;-48
2022/09/06 10:14:11;;;;;;;19.70;18.50;;;;;;;20.93;60.11;101773.44;4958834;28;102394;-48
2022/09/06 10:16:43;;;;;;;20.20;19.05;;;;;;;20.92;60.21;101783.69;4954172;28;102900;-48
2022/09/06 10:19:37;;;;;;;18.23;17.13;;;;;;;20.92;60.21;101763.50;4956959;28;103833;-48
2022/09/06 10:22:12;;;;;;;17.92;16.88;;;;;;;20.93;59.93;101767.91;4957615;28;102173;-48
2022/09/06 10:24:54;;;;;;;20.13;18.95;;;;;;;20.92;59.86;101766.28;4964853;28;102262;-49
2022/09/06 10:27:25;;;;;;;20.63;19.35;;;;;;;20.93;60.12;101770.66;4972663;28;102222;-49
2022/09/06 10:29:57;;;;;;;20.55;19.25;;;;;;;20.93;60.16;101762.34;4971321;28;104042;-48
2022/09/06 10:32:37;;;;;;;19.05;17.85;;;;;;;20.93;60.25;101759.59;4973855;28;102396;-49
2022/09/06 10:35:18;;;;;;;16.75;15.75;;;;;;;20.93;60.28;101763.19;4974600;28;102115;-48
2022/09/06 10:37:59;;;;;;;17.90;16.80;;;;;;;20.94;60.84;101758.44;4974844;28;101995;-48
2022/09/06 10:40:32;;;;;;;20.45;19.25;;;;;;;20.92;60.47;101760.72;4969168;28;103843;-49
2022/09/06 10:43:02;;;;;;;18.33;17.27;;;;;;;20.91;60.45;101767.38;4964721;28;102823;-49
2022/09/06 10:45:45;;;;;;;19.90;18.63;;;;;;;20.90;60.26;101763.81;4978222;28;102099;-49
2022/09/06 10:48:18;;;;;;;20.70;19.55;;;;;;;20.90;60.33;101758.28;4979160;28;102559;-48
2022/09/06 10:50:50;;;;;;;20.60;19.33;;;;;;;20.90;60.24;101746.38;4966165;28;108099;-49
2022/09/06 10:53:31;;;;;;;18.80;17.63;;;;;;;20.90;59.94;101743.63;4959631;28;102214;-55
2022/09/06 10:56:03;;;;;;;20.35;19.05;;;;;;;20.90;60.15;101749.16;4968062;28;102346;-49
2022/09/06 10:58:41;;;;;;;19.85;18.65;;;;;;;20.87;59.73;101743.09;4962863;28;102038;-50
2022/09/06 11:01:21;;;;;;;19.30;18.20;;;;;;;20.88;59.80;101739.22;4974126;28;104164;-49
2022/09/06 11:03:50;;;;;;;21.65;20.25;;;;;;;20.88;59.96;101742.00;4968111;28;101962;-49
2022/09/06 11:06:20;;;;;;;18.02;16.83;;;;;;;20.87;60.06;101742.28;4960641;28;102234;-49
2022/09/06 11:08:50;;;;;;;19.98;18.77;;;;;;;20.87;60.18;101745.88;4967702;28;102318;-49
2022/09/06 11:11:22;;;;;;;21.35;20.05;;;;;;;20.88;60.35;101747.53;4975486;28;104192;-49
2022/09/06 11:13:48;;;;;;;19.15;18.05;;;;;;;20.87;60.46;101742.28;4971632;28;102333;-48
2022/09/06 11:16:24;;;;;;;18.52;17.42;;;;;;;20.86;60.59;101744.25;4960477;28;102297;-48